createdAt,value
2017-12-29T12:02:40.130Z,4.00
2017-12-29T12:02:41.201Z,5.80
2017-12-29T12:02:42.294Z,5.70
2017-12-29T12:06:54.034Z,9.70
2017-12-29T12:06:55.042Z,8.90
2017-12-29T12:06:56.047Z,8.80
2017-12-29T12:06:57.187Z,8.80
2017-12-29T12:06:58.275Z,8.70
2017-12-29T12:06:59.277Z,8.70
2017-12-29T12:08:43.987Z,7.60
2017-12-29T12:08:46.054Z,55.50
2017-12-29T12:08:47.130Z,43.20
2017-12-29T12:09:40.692Z,8.70
2017-12-29T12:09:41.774Z,43.70
2017-12-29T12:09:42.828Z,44.00
2017-12-29T12:09:43.902Z,44.20
2017-12-29T12:10:36.907Z,46.20
2017-12-29T12:10:38.967Z,6.10
2017-12-29T12:10:40.056Z,6.00
2017-12-29T12:10:41.143Z,5.90
2017-12-29T12:14:03.957Z,5.90
2017-12-29T12:14:05.574Z,10.20
2017-12-29T12:14:06.598Z,10.10
2017-12-29T12:14:07.736Z,10.00
2017-12-29T12:15:51.506Z,9.80
2017-12-29T12:15:53.622Z,15.50
2017-12-29T12:15:54.718Z,15.50
2017-12-29T12:15:55.762Z,15.50
2017-12-29T12:17:38.326Z,18.70
2017-12-29T12:17:40.427Z,16.90
2017-12-29T12:17:41.457Z,16.80
2017-12-29T12:17:42.549Z,17.10
2017-12-29T12:18:35.073Z,38.90
2017-12-29T12:18:36.653Z,23.20
2017-12-29T12:18:37.190Z,22.00
2017-12-29T12:18:38.260Z,40.70
2017-12-29T12:18:39.342Z,66.40
2017-12-29T12:20:21.886Z,140.70
2017-12-29T12:20:22.991Z,55.80
2017-12-29T12:20:24.033Z,53.80
2017-12-29T12:20:25.073Z,51.50
2017-12-29T12:20:26.164Z,48.70
2017-12-29T12:21:19.169Z,25.90
2017-12-29T12:21:21.318Z,136.40
2017-12-29T12:21:22.338Z,134.30
2017-12-29T12:22:15.189Z,45.10
2017-12-29T12:22:17.387Z,14.50
2017-12-29T12:22:17.919Z,15.10
2017-12-29T12:22:19.033Z,26.10
2017-12-29T12:23:13.539Z,79.70
2017-12-29T12:23:15.149Z,154.10
2017-12-29T12:23:16.194Z,147.50
2017-12-29T12:23:17.256Z,125.00
2017-12-29T12:23:17.794Z,114.20
2017-12-29T12:23:18.876Z,113.10
2017-12-29T12:23:19.958Z,101.20
2017-12-29T12:23:21.022Z,82.20
2017-12-29T12:23:22.072Z,93.50
2017-12-29T12:23:23.112Z,87.00
2017-12-29T12:23:24.212Z,84.10
2017-12-29T12:23:24.759Z,83.90
2017-12-29T12:23:25.794Z,81.20
2017-12-29T12:23:26.874Z,80.30
2017-12-29T12:23:27.964Z,79.60
2017-12-29T12:23:29.018Z,77.90
2017-12-29T12:23:30.127Z,75.70
2017-12-29T12:23:31.198Z,74.10
2017-12-29T12:23:31.724Z,74.00
2017-12-29T12:23:32.790Z,73.70
2017-12-29T12:23:33.876Z,73.50
2017-12-29T12:23:34.974Z,73.90
2017-12-29T12:23:36.026Z,72.10
2017-12-29T12:23:37.102Z,68.00
2017-12-29T12:23:38.152Z,65.20
2017-12-29T12:23:39.241Z,64.40
2017-12-29T12:23:39.762Z,63.60
2017-12-29T12:23:40.798Z,62.80
2017-12-29T12:23:41.880Z,62.00
2017-12-29T12:23:42.925Z,61.20
2017-12-29T12:23:43.984Z,60.20
2017-12-29T12:23:45.022Z,59.30
2017-12-29T12:23:46.124Z,58.60
2017-12-29T12:23:47.191Z,58.40
2017-12-29T12:23:47.724Z,58.30
2017-12-29T12:23:48.772Z,57.40
2017-12-29T12:23:49.883Z,56.00
2017-12-29T12:23:50.955Z,53.70
2017-12-29T12:23:52.014Z,36.60
2017-12-29T12:23:53.080Z,30.20
2017-12-29T12:23:54.204Z,29.20
2017-12-29T12:23:54.734Z,40.30
2017-12-29T12:23:55.803Z,61.30
2017-12-29T12:23:56.894Z,78.60
2017-12-29T12:23:57.934Z,107.40
2017-12-29T12:23:59.022Z,134.40
2017-12-29T12:24:00.128Z,151.50
2017-12-29T12:24:01.196Z,168.90
2017-12-29T12:24:01.725Z,184.70
2017-12-29T12:24:02.840Z,189.00
2017-12-29T12:24:03.918Z,190.90
2017-12-29T12:24:04.946Z,191.50
2017-12-29T12:24:06.046Z,194.10
2017-12-29T12:24:07.158Z,198.20
2017-12-29T12:24:07.692Z,200.30
2017-12-29T12:24:08.846Z,201.80
2017-12-29T12:24:09.956Z,204.00
2017-12-29T12:24:11.012Z,206.20
2017-12-29T12:24:12.057Z,208.10
2017-12-29T12:24:13.160Z,210.80
2017-12-29T12:24:13.694Z,230.30
2017-12-29T12:24:14.752Z,252.60
2017-12-29T12:24:15.880Z,259.20
2017-12-29T12:24:16.940Z,260.10
2017-12-29T12:24:18.038Z,260.90
2017-12-29T12:24:19.263Z,266.90
2017-12-29T12:24:19.634Z,271.90
2017-12-29T12:24:20.690Z,275.80
2017-12-29T12:24:21.734Z,280.80
2017-12-29T12:24:22.844Z,283.50
2017-12-29T12:24:23.902Z,285.90
2017-12-29T12:24:24.947Z,273.50
2017-12-29T12:24:26.046Z,254.20
2017-12-29T12:24:27.083Z,238.20
2017-12-29T12:24:28.134Z,209.30
2017-12-29T12:24:28.674Z,183.00
2017-12-29T12:24:29.803Z,166.40
2017-12-29T12:24:30.864Z,150.50
2017-12-29T12:24:31.904Z,135.00
2017-12-29T12:24:32.942Z,130.10
2017-12-29T12:24:34.032Z,128.60
2017-12-29T12:24:35.078Z,127.70
2017-12-29T12:24:36.124Z,125.80
2017-12-29T12:24:36.652Z,121.60
2017-12-29T12:24:37.782Z,119.50
2017-12-29T12:24:38.834Z,118.10
2017-12-29T12:24:39.886Z,116.20
2017-12-29T12:24:40.936Z,114.20
2017-12-29T12:24:41.986Z,112.90
2017-12-29T12:24:43.034Z,110.30
2017-12-29T12:24:44.119Z,91.60
2017-12-29T12:24:44.680Z,70.70
2017-12-29T12:24:45.742Z,65.60
2017-12-29T12:24:46.844Z,67.30
2017-12-29T12:24:47.912Z,67.90
2017-12-29T12:24:48.998Z,61.70
2017-12-29T12:24:50.045Z,56.60
2017-12-29T12:24:51.164Z,52.40
2017-12-29T12:24:51.714Z,46.80
2017-12-29T12:24:52.752Z,44.00
2017-12-29T12:24:53.878Z,41.60
2017-12-29T12:24:54.964Z,58.00
2017-12-29T12:24:56.004Z,59.40
2017-12-29T12:24:57.044Z,57.90
2017-12-29T12:24:58.084Z,56.60
2017-12-29T12:24:58.612Z,55.60
2017-12-29T12:24:59.664Z,64.00
2017-12-29T12:25:00.707Z,62.90
2017-12-29T12:25:01.807Z,62.10
2017-12-29T12:25:02.929Z,61.60
2017-12-29T12:25:03.976Z,62.20
2017-12-29T12:25:05.076Z,62.40
2017-12-29T12:25:05.636Z,61.80
2017-12-29T12:25:06.673Z,61.80
2017-12-29T12:25:07.714Z,61.90
2017-12-29T12:25:08.792Z,61.90
2017-12-29T12:25:09.844Z,61.60
2017-12-29T12:25:10.894Z,61.30
2017-12-29T12:25:12.024Z,60.80
2017-12-29T12:25:12.571Z,60.40
2017-12-29T12:25:13.684Z,59.60
2017-12-29T12:25:14.758Z,58.20
2017-12-29T12:25:15.835Z,56.30
2017-12-29T12:25:16.917Z,53.30
2017-12-29T12:25:18.036Z,51.60
2017-12-29T12:25:18.572Z,51.30
2017-12-29T12:25:19.637Z,51.00
2017-12-29T12:25:20.674Z,50.90
2017-12-29T12:25:21.720Z,50.80
2017-12-29T12:25:22.842Z,50.50
2017-12-29T12:25:23.904Z,50.00
2017-12-29T12:25:25.005Z,32.20
2017-12-29T12:25:26.072Z,28.30
2017-12-29T12:25:26.607Z,27.80
2017-12-29T12:25:27.683Z,27.50
2017-12-29T12:25:28.736Z,27.20
2017-12-29T12:25:29.814Z,17.70
2017-12-29T12:25:30.860Z,17.00
2017-12-29T12:25:31.968Z,16.60
2017-12-29T12:25:33.068Z,16.10
2017-12-29T12:25:33.642Z,14.20
2017-12-29T12:25:34.760Z,13.10
2017-12-29T12:25:35.797Z,12.70
2017-12-29T12:25:36.880Z,12.10
2017-12-29T12:25:37.962Z,11.60
2017-12-29T12:25:39.004Z,11.00
2017-12-29T12:25:39.534Z,10.70
2017-12-29T12:25:40.626Z,10.60
2017-12-29T12:25:41.664Z,10.50
2017-12-29T12:25:42.760Z,10.40
2017-12-29T12:25:43.866Z,10.20
2017-12-29T12:25:44.901Z,9.90
2017-12-29T12:25:46.036Z,9.60
2017-12-29T12:25:46.596Z,9.50
2017-12-29T12:25:47.636Z,9.30
2017-12-29T12:25:48.758Z,9.20
2017-12-29T12:25:49.823Z,9.00
2017-12-29T12:25:50.872Z,8.70
2017-12-29T12:25:51.933Z,9.10
2017-12-29T12:25:53.014Z,9.60
2017-12-29T12:25:53.543Z,10.00
2017-12-29T12:25:54.676Z,10.60
2017-12-29T12:25:55.800Z,22.60
2017-12-29T12:25:56.844Z,33.60
2017-12-29T12:25:57.942Z,37.70
2017-12-29T12:25:58.981Z,41.80
2017-12-29T12:25:59.570Z,42.90
2017-12-29T12:26:00.612Z,43.40
2017-12-29T12:26:01.710Z,43.40
2017-12-29T12:26:02.802Z,43.90
2017-12-29T12:26:03.844Z,64.20
2017-12-29T12:26:04.918Z,71.80
2017-12-29T12:26:06.022Z,75.30
2017-12-29T12:26:06.552Z,80.20
2017-12-29T12:26:07.648Z,101.40
2017-12-29T12:26:08.757Z,104.90
2017-12-29T12:26:09.804Z,105.90
2017-12-29T12:26:10.844Z,106.60
2017-12-29T12:26:11.946Z,107.10
2017-12-29T12:26:12.524Z,108.30
2017-12-29T12:26:13.562Z,115.00
2017-12-29T12:26:14.658Z,119.50
2017-12-29T12:26:15.754Z,122.70
2017-12-29T12:26:16.792Z,124.80
2017-12-29T12:26:17.828Z,125.90
2017-12-29T12:26:18.927Z,126.70
2017-12-29T12:26:19.475Z,127.40
2017-12-29T12:26:20.554Z,128.50
2017-12-29T12:26:21.603Z,129.80
2017-12-29T12:26:22.684Z,130.30
2017-12-29T12:26:23.724Z,130.80
2017-12-29T12:26:24.762Z,130.90
2017-12-29T12:26:25.884Z,119.50
2017-12-29T12:26:26.952Z,109.20
2017-12-29T12:26:27.484Z,105.70
2017-12-29T12:26:28.526Z,101.90
2017-12-29T12:26:29.558Z,101.10
2017-12-29T12:26:30.603Z,100.90
2017-12-29T12:26:31.684Z,101.10
2017-12-29T12:26:32.750Z,101.00
2017-12-29T12:26:33.914Z,81.10
2017-12-29T12:26:34.936Z,73.90
2017-12-29T12:26:35.482Z,70.80
2017-12-29T12:26:36.568Z,66.20
2017-12-29T12:26:37.642Z,45.50
2017-12-29T12:26:38.688Z,42.50
2017-12-29T12:26:39.800Z,41.60
2017-12-29T12:26:40.854Z,41.00
2017-12-29T12:26:41.904Z,40.60
2017-12-29T12:26:42.435Z,39.60
2017-12-29T12:26:43.572Z,33.00
2017-12-29T12:26:44.624Z,28.60
2017-12-29T12:26:45.686Z,25.70
2017-12-29T12:26:46.774Z,23.90
2017-12-29T12:26:47.794Z,22.90
2017-12-29T12:26:48.850Z,22.20
2017-12-29T12:26:49.883Z,21.70
2017-12-29T12:26:50.448Z,20.70
2017-12-29T12:26:51.564Z,19.20
2017-12-29T12:26:52.605Z,18.30
2017-12-29T12:26:53.730Z,17.40
2017-12-29T12:26:54.798Z,16.50
2017-12-29T12:26:55.838Z,15.70
2017-12-29T12:26:56.891Z,14.80
2017-12-29T12:26:57.412Z,14.10
2017-12-29T12:26:58.512Z,13.70
2017-12-29T12:26:59.604Z,13.30
2017-12-29T12:27:00.684Z,12.90
2017-12-29T12:27:01.752Z,12.50
2017-12-29T12:27:02.833Z,12.00
2017-12-29T12:27:04.041Z,11.50
2017-12-29T12:27:04.606Z,11.00
2017-12-29T12:27:05.693Z,10.60
2017-12-29T12:27:06.837Z,10.40
2017-12-29T12:27:07.914Z,10.00
2017-12-29T12:27:08.481Z,9.60
2017-12-29T12:27:09.562Z,9.40
2017-12-29T12:27:10.644Z,9.20
2017-12-29T12:27:11.724Z,9.00
2017-12-29T12:27:12.822Z,8.70
2017-12-29T12:27:14.038Z,8.50
2017-12-29T12:27:14.582Z,8.30
2017-12-29T12:27:15.634Z,8.10
2017-12-29T12:27:16.780Z,7.90
2017-12-29T12:27:18.077Z,7.80
2017-12-29T12:27:18.610Z,7.60
2017-12-29T12:27:19.718Z,7.30
2017-12-29T12:27:20.844Z,7.10
2017-12-29T12:27:21.392Z,6.70
2017-12-29T12:27:22.436Z,6.40
2017-12-29T12:27:23.564Z,6.30
2017-12-29T12:27:24.597Z,6.30
2017-12-29T12:27:25.722Z,6.30
2017-12-29T12:27:26.765Z,6.40
2017-12-29T12:27:27.878Z,6.50
2017-12-29T12:27:28.439Z,6.50
2017-12-29T12:27:29.563Z,6.40
2017-12-29T12:27:30.622Z,6.50
2017-12-29T12:27:31.717Z,6.40
2017-12-29T12:27:32.836Z,6.40
2017-12-29T12:27:33.402Z,6.40
2017-12-29T12:27:34.440Z,6.40
2017-12-29T12:27:35.516Z,6.20
2017-12-29T12:27:36.593Z,6.20
2017-12-29T12:27:37.668Z,6.10
2017-12-29T12:27:38.772Z,6.20
2017-12-29T12:27:39.804Z,6.20
2017-12-29T12:27:40.332Z,6.30
2017-12-29T12:27:41.480Z,6.30
2017-12-29T12:27:42.594Z,6.40
2017-12-29T12:27:43.628Z,6.40
2017-12-29T12:27:44.684Z,6.50
2017-12-29T12:27:45.807Z,6.60
2017-12-29T12:27:46.354Z,6.60
2017-12-29T12:27:47.400Z,6.60
2017-12-29T12:27:48.452Z,6.60
2017-12-29T12:27:49.494Z,6.50
2017-12-29T12:27:50.544Z,6.50
2017-12-29T12:27:51.600Z,6.60
2017-12-29T12:27:52.672Z,6.60
2017-12-29T12:27:53.799Z,6.60
2017-12-29T12:27:54.324Z,6.50
2017-12-29T12:27:55.383Z,6.50
2017-12-29T12:27:56.489Z,6.40
2017-12-29T12:27:57.550Z,6.30
2017-12-29T12:27:58.608Z,6.10
2017-12-29T12:27:59.654Z,6.10
2017-12-29T12:28:00.762Z,6.00
2017-12-29T12:28:01.290Z,5.90
2017-12-29T12:28:02.352Z,6.10
2017-12-29T12:28:03.387Z,6.10
2017-12-29T12:28:04.475Z,6.20
2017-12-29T12:28:05.568Z,6.30
2017-12-29T12:28:06.680Z,6.20
2017-12-29T12:28:07.800Z,6.20
2017-12-29T12:28:08.334Z,6.00
2017-12-29T12:28:09.482Z,6.00
2017-12-29T12:28:10.592Z,6.00
2017-12-29T12:28:11.680Z,6.00
2017-12-29T12:28:12.836Z,5.90
2017-12-29T12:28:13.398Z,5.90
2017-12-29T12:28:14.478Z,5.90
2017-12-29T12:28:15.474Z,5.80
2017-12-29T12:28:16.572Z,5.80
2017-12-29T12:28:17.674Z,5.80
2017-12-29T12:28:18.775Z,5.80
2017-12-29T12:28:19.302Z,5.80
2017-12-29T12:28:20.390Z,5.90
2017-12-29T12:28:21.503Z,6.00
2017-12-29T12:28:22.648Z,5.90
2017-12-29T12:28:23.667Z,5.80
2017-12-29T12:28:24.801Z,5.90
2017-12-29T12:28:25.336Z,5.90
2017-12-29T12:28:26.444Z,6.00
2017-12-29T12:28:27.492Z,6.30
2017-12-29T12:28:28.543Z,7.00
2017-12-29T12:28:29.584Z,7.60
2017-12-29T12:28:30.632Z,7.80
2017-12-29T12:28:31.726Z,8.00
2017-12-29T12:28:32.274Z,8.10
2017-12-29T12:28:33.362Z,8.10
2017-12-29T12:28:34.434Z,8.10
2017-12-29T12:28:35.475Z,8.00
2017-12-29T12:28:36.604Z,8.10
2017-12-29T12:28:37.642Z,8.10
2017-12-29T12:28:38.768Z,8.10
2017-12-29T12:28:39.325Z,12.90
2017-12-29T12:28:40.360Z,16.60
2017-12-29T12:28:41.436Z,51.70
2017-12-29T12:28:42.523Z,74.80
2017-12-29T12:28:43.589Z,80.30
2017-12-29T12:28:44.646Z,91.50
2017-12-29T12:28:45.712Z,96.60
2017-12-29T12:28:46.286Z,102.00
2017-12-29T12:28:47.353Z,109.00
2017-12-29T12:28:48.481Z,115.20
2017-12-29T12:28:49.494Z,127.30
2017-12-29T12:28:50.548Z,137.60
2017-12-29T12:28:51.584Z,148.00
2017-12-29T12:28:52.693Z,156.60
2017-12-29T12:28:53.224Z,162.80
2017-12-29T12:28:54.276Z,174.70
2017-12-29T12:28:55.340Z,202.10
2017-12-29T12:28:56.433Z,247.90
2017-12-29T12:28:57.524Z,285.70
2017-12-29T12:29:19.560Z,535.40
2017-12-29T12:29:21.154Z,999.90
2017-12-29T12:29:22.208Z,999.90
2017-12-29T12:29:23.324Z,999.90
2017-12-29T12:29:24.364Z,999.90
2017-12-29T12:29:25.422Z,999.90
2017-12-29T12:29:26.524Z,999.90
2017-12-29T12:29:27.634Z,999.90
2017-12-29T12:29:28.162Z,999.90
2017-12-29T12:29:29.232Z,996.50
2017-12-29T12:29:30.361Z,973.20
2017-12-29T12:29:31.414Z,955.80
2017-12-29T12:29:32.512Z,929.40
2017-12-29T12:29:33.634Z,902.30
2017-12-29T12:29:34.163Z,869.40
2017-12-29T12:29:35.254Z,837.70
2017-12-29T12:29:36.362Z,811.10
2017-12-29T12:29:37.426Z,799.80
2017-12-29T12:29:38.491Z,778.40
2017-12-29T12:29:39.626Z,759.00
2017-12-29T12:29:40.162Z,737.00
2017-12-29T12:29:41.203Z,712.60
2017-12-29T12:29:42.286Z,687.40
2017-12-29T12:29:43.404Z,661.60
2017-12-29T12:29:44.496Z,635.10
2017-12-29T12:29:45.558Z,607.30
2017-12-29T12:29:46.682Z,581.10
2017-12-29T12:29:47.251Z,554.10
2017-12-29T12:29:48.328Z,527.10
2017-12-29T12:29:49.395Z,501.60
2017-12-29T12:29:50.478Z,473.10
2017-12-29T12:29:51.572Z,447.70
2017-12-29T12:29:52.684Z,423.60
2017-12-29T12:29:53.214Z,404.50
2017-12-29T12:29:54.366Z,383.50
2017-12-29T12:29:55.478Z,364.70
2017-12-29T12:29:56.512Z,346.10
2017-12-29T12:29:57.616Z,330.00
2017-12-29T12:29:58.226Z,316.80
2017-12-29T12:29:59.323Z,303.50
2017-12-29T12:30:00.446Z,290.00
2017-12-29T12:30:01.482Z,279.90
2017-12-29T12:30:02.547Z,266.10
2017-12-29T12:30:03.614Z,253.30
2017-12-29T12:30:04.184Z,243.50
2017-12-29T12:30:05.270Z,233.20
2017-12-29T12:30:06.428Z,221.80
2017-12-29T12:30:07.462Z,208.30
2017-12-29T12:30:08.539Z,194.60
2017-12-29T12:30:09.634Z,184.10
2017-12-29T12:30:10.228Z,175.80
2017-12-29T12:30:11.325Z,168.10
2017-12-29T12:30:12.362Z,161.50
2017-12-29T12:30:13.499Z,155.30
2017-12-29T12:30:14.575Z,149.20
2017-12-29T12:30:15.090Z,144.10
2017-12-29T12:30:16.128Z,139.30
2017-12-29T12:30:17.241Z,157.30
2017-12-29T12:30:18.322Z,158.20
2017-12-29T12:30:19.475Z,153.70
2017-12-29T12:30:20.516Z,152.30
2017-12-29T12:30:21.562Z,155.70
2017-12-29T12:30:22.096Z,156.90
2017-12-29T12:30:23.251Z,158.50
2017-12-29T12:30:24.369Z,155.70
2017-12-29T12:30:25.426Z,151.80
2017-12-29T12:30:26.532Z,147.40
2017-12-29T12:30:27.049Z,143.20
2017-12-29T12:30:28.114Z,140.50
2017-12-29T12:30:29.260Z,138.60
2017-12-29T12:30:30.317Z,136.00
2017-12-29T12:30:31.344Z,135.30
2017-12-29T12:30:32.394Z,134.50
2017-12-29T12:30:33.492Z,133.10
2017-12-29T12:30:34.584Z,131.80
2017-12-29T12:30:35.128Z,130.60
2017-12-29T12:30:36.198Z,134.40
2017-12-29T12:30:37.242Z,137.20
2017-12-29T12:30:38.292Z,145.20
2017-12-29T12:30:39.337Z,148.50
2017-12-29T12:30:40.464Z,148.90
2017-12-29T12:30:41.502Z,148.20
2017-12-29T12:30:42.032Z,147.70
2017-12-29T12:30:43.116Z,147.00
2017-12-29T12:30:44.216Z,146.20
2017-12-29T12:30:45.269Z,145.10
2017-12-29T12:30:46.302Z,144.30
2017-12-29T12:30:47.364Z,120.90
2017-12-29T12:30:48.432Z,114.20
2017-12-29T12:30:49.496Z,111.40
2017-12-29T12:30:50.042Z,108.40
2017-12-29T12:30:51.132Z,99.50
2017-12-29T12:30:52.199Z,91.90
2017-12-29T12:30:53.244Z,86.30
2017-12-29T12:30:54.362Z,85.20
2017-12-29T12:30:55.434Z,84.20
2017-12-29T12:30:56.474Z,83.50
2017-12-29T12:30:57.007Z,82.60
2017-12-29T12:30:58.058Z,80.50
2017-12-29T12:30:59.156Z,76.90
2017-12-29T12:31:00.280Z,75.50
2017-12-29T12:31:01.324Z,71.60
2017-12-29T12:31:02.394Z,70.20
2017-12-29T12:31:03.480Z,68.70
2017-12-29T12:31:04.035Z,67.30
2017-12-29T12:31:05.036Z,66.30
2017-12-29T12:31:06.094Z,61.30
2017-12-29T12:31:07.158Z,56.80
2017-12-29T12:31:08.280Z,47.70
2017-12-29T12:31:09.344Z,42.70
2017-12-29T12:31:10.395Z,39.60
2017-12-29T12:31:11.476Z,38.40
2017-12-29T12:31:12.001Z,37.10
2017-12-29T12:31:13.082Z,36.00
2017-12-29T12:31:14.164Z,35.10
2017-12-29T12:31:15.198Z,34.60
2017-12-29T12:31:16.276Z,33.70
2017-12-29T12:31:17.332Z,32.80
2017-12-29T12:31:18.386Z,32.20
2017-12-29T12:31:19.474Z,31.60
2017-12-29T12:31:20.034Z,31.20
2017-12-29T12:31:21.086Z,30.70
2017-12-29T12:31:22.199Z,30.20
2017-12-29T12:31:23.264Z,29.70
2017-12-29T12:31:24.314Z,29.20
2017-12-29T12:31:25.396Z,28.90
2017-12-29T12:31:26.448Z,28.10
2017-12-29T12:31:26.992Z,27.40
2017-12-29T12:31:28.072Z,26.80
2017-12-29T12:31:29.121Z,26.20
2017-12-29T12:31:30.200Z,25.70
2017-12-29T12:31:31.244Z,25.30
2017-12-29T12:31:32.280Z,24.90
2017-12-29T12:31:33.349Z,24.60
2017-12-29T12:31:34.448Z,23.90
2017-12-29T12:31:35.049Z,23.40
2017-12-29T12:31:36.074Z,22.80
2017-12-29T12:31:37.160Z,22.30
2017-12-29T12:31:38.224Z,21.80
2017-12-29T12:31:39.320Z,21.20
2017-12-29T12:31:40.434Z,20.80
2017-12-29T12:31:40.964Z,20.40
2017-12-29T12:31:42.004Z,20.00
2017-12-29T12:31:43.140Z,19.30
2017-12-29T12:31:44.117Z,18.70
2017-12-29T12:31:45.157Z,18.20
2017-12-29T12:31:46.303Z,17.60
2017-12-29T12:31:47.470Z,17.10
2017-12-29T12:31:48.116Z,16.70
2017-12-29T12:31:49.154Z,16.10
2017-12-29T12:31:50.232Z,15.70
2017-12-29T12:31:51.284Z,15.20
2017-12-29T12:31:52.355Z,14.80
2017-12-29T12:31:53.392Z,14.50
2017-12-29T12:31:53.959Z,14.00
2017-12-29T12:31:54.988Z,13.50
2017-12-29T12:31:56.086Z,13.10
2017-12-29T12:31:57.164Z,12.70
2017-12-29T12:31:58.202Z,12.50
2017-12-29T12:31:59.242Z,12.00
2017-12-29T12:32:00.361Z,11.70
2017-12-29T12:32:01.438Z,11.50
2017-12-29T12:32:01.962Z,11.20
2017-12-29T12:32:03.012Z,11.30
2017-12-29T12:32:04.062Z,11.60
2017-12-29T12:32:05.105Z,11.60
2017-12-29T12:32:06.144Z,11.70
2017-12-29T12:32:07.243Z,11.70
2017-12-29T12:32:08.360Z,11.50
2017-12-29T12:32:08.894Z,11.40
2017-12-29T12:32:10.041Z,11.20
2017-12-29T12:32:11.153Z,11.00
2017-12-29T12:32:12.188Z,11.10
2017-12-29T12:32:13.320Z,11.10
2017-12-29T12:32:14.389Z,11.10
2017-12-29T12:32:14.908Z,11.10
2017-12-29T12:32:15.961Z,10.90
2017-12-29T12:32:17.076Z,10.90
2017-12-29T12:32:18.152Z,10.80
2017-12-29T12:32:19.243Z,10.80
2017-12-29T12:32:20.351Z,10.70
2017-12-29T12:32:20.876Z,10.70
2017-12-29T12:32:21.922Z,10.50
2017-12-29T12:32:22.976Z,10.40
2017-12-29T12:32:24.038Z,10.30
2017-12-29T12:32:25.159Z,10.30
2017-12-29T12:32:26.244Z,10.20
2017-12-29T12:32:27.243Z,10.30
2017-12-29T12:32:28.298Z,10.10
2017-12-29T12:32:29.342Z,10.10
2017-12-29T12:32:29.876Z,9.90
2017-12-29T12:32:30.996Z,9.80
2017-12-29T12:32:32.071Z,12.40
2017-12-29T12:32:33.124Z,12.80
2017-12-29T12:32:34.196Z,13.50
2017-12-29T12:32:35.302Z,15.00
2017-12-29T12:32:35.834Z,18.50
2017-12-29T12:32:36.917Z,20.00
2017-12-29T12:32:37.992Z,21.70
2017-12-29T12:32:39.074Z,26.80
2017-12-29T12:32:40.124Z,53.60
2017-12-29T12:32:41.210Z,88.70
2017-12-29T12:32:42.280Z,116.00
2017-12-29T12:32:43.378Z,147.40
2017-12-29T12:32:43.912Z,167.20
2017-12-29T12:32:44.996Z,205.30
2017-12-29T12:32:46.090Z,245.20
2017-12-29T12:32:47.166Z,287.60
2017-12-29T12:32:48.216Z,317.40
2017-12-29T12:32:49.318Z,342.20
2017-12-29T12:32:49.853Z,367.70
2017-12-29T12:32:50.912Z,391.90
2017-12-29T12:32:51.956Z,416.90
2017-12-29T12:32:52.996Z,443.50
2017-12-29T12:32:54.042Z,470.60
2017-12-29T12:32:55.164Z,486.00
2017-12-29T12:32:56.235Z,507.50
2017-12-29T12:32:57.320Z,528.60
2017-12-29T12:32:57.872Z,542.90
2017-12-29T12:32:58.948Z,556.00
2017-12-29T12:32:59.994Z,576.90
2017-12-29T12:33:01.083Z,592.70
2017-12-29T12:33:02.116Z,603.80
2017-12-29T12:33:03.204Z,612.40
2017-12-29T12:33:04.274Z,620.20
2017-12-29T12:33:04.838Z,628.90
2017-12-29T12:33:05.878Z,632.70
2017-12-29T12:33:06.932Z,637.80
2017-12-29T12:33:07.972Z,642.80
2017-12-29T12:33:09.078Z,645.50
2017-12-29T12:33:10.142Z,625.00
2017-12-29T12:33:11.200Z,596.90
2017-12-29T12:33:12.280Z,574.90
2017-12-29T12:33:12.840Z,547.60
2017-12-29T12:33:13.948Z,532.00
2017-12-29T12:33:14.998Z,498.10
2017-12-29T12:33:16.124Z,462.60
2017-12-29T12:33:17.162Z,424.00
2017-12-29T12:33:18.208Z,397.90
2017-12-29T12:33:19.330Z,376.40
2017-12-29T12:33:19.868Z,354.90
2017-12-29T12:33:20.916Z,334.90
2017-12-29T12:33:22.024Z,313.30
2017-12-29T12:33:23.158Z,289.90
2017-12-29T12:33:24.284Z,266.20
2017-12-29T12:33:24.832Z,253.50
2017-12-29T12:33:25.912Z,234.90
2017-12-29T12:33:26.954Z,217.40
2017-12-29T12:33:28.042Z,205.90
2017-12-29T12:33:29.082Z,194.80
2017-12-29T12:33:30.112Z,175.50
2017-12-29T12:33:31.154Z,161.40
2017-12-29T12:33:32.272Z,148.90
2017-12-29T12:33:32.802Z,140.70
2017-12-29T12:33:33.880Z,136.90
2017-12-29T12:33:34.922Z,131.70
2017-12-29T12:33:36.048Z,131.00
2017-12-29T12:33:37.074Z,127.80
2017-12-29T12:33:38.125Z,122.70
2017-12-29T12:33:39.164Z,116.60
2017-12-29T12:33:40.226Z,111.30
2017-12-29T12:33:40.780Z,105.80
2017-12-29T12:33:41.810Z,101.90
